createdAt,value
2017-09-17T00:00:30.822Z,46.72
2017-09-17T00:01:30.857Z,46.72
2017-09-17T00:02:30.900Z,46.69
2017-09-17T00:03:30.937Z,46.81
2017-09-17T00:04:30.978Z,46.59
2017-09-17T00:05:31.020Z,46.72
2017-09-17T00:06:31.056Z,46.81
2017-09-17T00:07:31.097Z,46.69
2017-09-17T00:08:31.137Z,46.69
2017-09-17T00:09:31.175Z,46.72
2017-09-17T00:10:31.217Z,46.69
2017-09-17T00:11:31.255Z,46.59
2017-09-17T00:12:31.295Z,46.69
2017-09-17T00:13:31.335Z,46.72
2017-09-17T00:14:31.375Z,46.72
2017-09-17T00:15:31.414Z,46.72
2017-09-17T00:16:31.455Z,46.69
2017-09-17T00:17:31.494Z,46.69
2017-09-17T00:18:31.533Z,46.62
2017-09-17T00:19:31.572Z,46.69
2017-09-17T00:20:31.611Z,46.62
2017-09-17T00:21:31.651Z,46.72
2017-09-17T00:22:31.699Z,46.81
2017-09-17T00:23:31.732Z,46.69
2017-09-17T00:24:31.782Z,46.72
2017-09-17T00:25:31.809Z,46.72
2017-09-17T00:26:31.853Z,46.72
2017-09-17T00:27:31.893Z,46.72
2017-09-17T00:28:31.929Z,46.69
2017-09-17T00:29:31.968Z,46.72
2017-09-17T00:30:32.009Z,46.81
2017-09-17T00:31:32.050Z,46.79
2017-09-17T00:32:32.088Z,46.72
2017-09-17T00:33:32.127Z,46.81
2017-09-17T00:34:32.168Z,46.69
2017-09-17T00:35:32.207Z,46.72
2017-09-17T00:36:32.250Z,46.69
2017-09-17T00:37:32.285Z,46.72
2017-09-17T00:38:32.325Z,46.72
2017-09-17T00:39:32.369Z,46.69
2017-09-17T00:40:32.406Z,46.62
2017-09-17T00:41:32.446Z,46.72
2017-09-17T00:42:32.486Z,46.69
2017-09-17T00:43:32.523Z,46.72
2017-09-17T00:44:32.563Z,46.72
2017-09-17T00:45:32.604Z,46.72
2017-09-17T00:46:32.644Z,46.69
2017-09-17T00:47:32.683Z,46.69
2017-09-17T00:48:32.722Z,46.79
2017-09-17T00:49:32.761Z,46.72
2017-09-17T00:50:32.802Z,46.72
2017-09-17T00:51:32.841Z,46.79
2017-09-17T00:52:32.881Z,46.72
2017-09-17T00:53:32.920Z,46.81
2017-09-17T00:54:32.959Z,46.72
2017-09-17T00:55:33.000Z,46.69
2017-09-17T00:56:33.040Z,46.72
2017-09-17T00:57:33.077Z,46.72
2017-09-17T00:58:33.118Z,46.81
2017-09-17T00:59:33.157Z,46.59
2017-09-17T01:00:33.199Z,46.69
2017-09-17T01:01:33.240Z,46.72
2017-09-17T01:02:33.279Z,46.62
2017-09-17T01:03:33.320Z,46.69
2017-09-17T01:04:33.360Z,46.62
2017-09-17T01:05:33.396Z,46.59
2017-09-17T01:06:33.436Z,46.69
2017-09-17T01:07:33.476Z,46.81
2017-09-17T01:08:33.523Z,46.62
2017-09-17T01:09:33.554Z,46.59
2017-09-17T01:10:33.596Z,46.72
2017-09-17T01:11:33.637Z,46.72
2017-09-17T01:12:33.673Z,46.69
2017-09-17T01:13:33.714Z,46.69
2017-09-17T01:14:33.753Z,46.69
2017-09-17T01:15:33.792Z,46.72
2017-09-17T01:16:33.832Z,46.72
2017-09-17T01:17:33.870Z,46.69
2017-09-17T01:18:33.910Z,46.69
2017-09-17T01:19:33.952Z,46.69
2017-09-17T01:20:33.990Z,46.79
2017-09-17T01:21:34.030Z,46.72
2017-09-17T01:22:34.069Z,46.59
2017-09-17T01:23:34.109Z,46.59
2017-09-17T01:24:34.149Z,46.62
2017-09-17T01:25:34.188Z,46.72
2017-09-17T01:26:34.228Z,46.72
2017-09-17T01:27:34.268Z,46.59
2017-09-17T01:28:34.311Z,46.72
2017-09-17T01:29:34.347Z,46.62
2017-09-17T01:30:34.387Z,46.69
2017-09-17T01:31:34.426Z,46.81
2017-09-17T01:32:34.466Z,46.62
2017-09-17T01:33:34.506Z,46.69
2017-09-17T01:34:34.544Z,46.69
2017-09-17T01:35:34.587Z,46.62
2017-09-17T01:36:34.624Z,46.59
2017-09-17T01:37:34.664Z,46.59
2017-09-17T01:38:34.708Z,46.81
2017-09-17T01:39:34.743Z,46.69
2017-09-17T01:40:34.785Z,46.69
2017-09-17T01:41:34.824Z,46.69
2017-09-17T01:42:34.862Z,46.79
2017-09-17T01:43:34.902Z,46.62
2017-09-17T01:44:34.942Z,46.72
2017-09-17T01:45:34.983Z,46.72
2017-09-17T01:46:35.020Z,46.69
2017-09-17T01:47:35.060Z,46.69
2017-09-17T01:48:35.102Z,46.69
2017-09-17T01:49:35.138Z,46.72
2017-09-17T01:50:35.180Z,46.69
2017-09-17T01:51:35.218Z,46.62
2017-09-17T01:52:35.259Z,46.69
2017-09-17T01:53:35.297Z,46.72
2017-09-17T01:54:36.270Z,46.69
2017-09-17T01:55:35.379Z,46.69
2017-09-17T01:56:35.418Z,46.69
2017-09-17T01:57:35.457Z,46.69
2017-09-17T01:58:35.499Z,46.69
2017-09-17T01:59:35.535Z,46.69
2017-09-17T02:00:35.577Z,46.69
2017-09-17T02:01:35.616Z,46.69
2017-09-17T02:02:35.657Z,46.69
2017-09-17T02:03:35.694Z,46.69
2017-09-17T02:04:35.734Z,46.62
2017-09-17T02:05:35.774Z,46.69
2017-09-17T02:06:35.815Z,46.79
2017-09-17T02:07:35.853Z,46.72
2017-09-17T02:08:35.893Z,46.62
2017-09-17T02:09:35.933Z,46.72
2017-09-17T02:10:35.973Z,46.72
2017-09-17T02:11:36.020Z,46.72
2017-09-17T02:12:36.054Z,46.62
2017-09-17T02:13:36.092Z,46.69
2017-09-17T02:14:36.130Z,46.72
2017-09-17T02:15:36.177Z,46.59
2017-09-17T02:16:36.210Z,46.72
2017-09-17T02:17:36.248Z,46.69
2017-09-17T02:18:36.289Z,46.69
2017-09-17T02:19:36.330Z,46.69
2017-09-17T02:20:36.368Z,46.72
2017-09-17T02:21:36.405Z,46.79
2017-09-17T02:22:36.448Z,46.59
2017-09-17T02:23:36.486Z,46.59
2017-09-17T02:24:36.526Z,46.79
2017-09-17T02:25:36.565Z,46.81
2017-09-17T02:26:36.604Z,46.69
2017-09-17T02:27:36.645Z,46.69
2017-09-17T02:28:36.690Z,46.59
2017-09-17T02:29:36.727Z,46.69
2017-09-17T02:30:36.764Z,46.72
2017-09-17T02:31:36.803Z,46.69
2017-09-17T02:32:36.849Z,46.79
2017-09-17T02:33:36.883Z,46.62
2017-09-17T02:34:36.922Z,46.69
2017-09-17T02:35:36.963Z,46.81
2017-09-17T02:36:37.006Z,46.69
2017-09-17T02:37:37.041Z,46.69
2017-09-17T02:38:37.084Z,46.79
2017-09-17T02:39:37.119Z,46.72
2017-09-17T02:40:37.160Z,46.69
2017-09-17T02:41:37.198Z,46.79
2017-09-17T02:42:37.239Z,46.81
2017-09-17T02:43:37.280Z,46.72
2017-09-17T02:44:37.317Z,46.72
2017-09-17T02:45:37.360Z,46.69
2017-09-17T02:46:37.402Z,46.69
2017-09-17T02:47:37.437Z,46.69
2017-09-17T02:48:37.477Z,46.59
2017-09-17T02:49:37.516Z,46.69
2017-09-17T02:50:37.564Z,46.69
2017-09-17T02:51:37.596Z,46.79
2017-09-17T02:52:37.636Z,46.59
2017-09-17T02:53:37.676Z,46.69
2017-09-17T02:54:37.714Z,46.59
2017-09-17T02:55:37.754Z,46.59
2017-09-17T02:56:37.795Z,46.69
2017-09-17T02:57:37.832Z,46.69
2017-09-17T02:58:37.872Z,46.59
2017-09-17T02:59:37.913Z,46.59
2017-09-17T03:00:37.953Z,46.59
2017-09-17T03:01:37.992Z,46.69
2017-09-17T03:02:38.031Z,46.59
2017-09-17T03:03:38.071Z,46.69
2017-09-17T03:04:38.110Z,46.59
2017-09-17T03:05:38.149Z,46.50
2017-09-17T03:06:38.191Z,46.59
2017-09-17T03:07:38.230Z,46.69
2017-09-17T03:08:38.269Z,46.69
2017-09-17T03:09:38.309Z,46.59
2017-09-17T03:10:38.349Z,46.69
2017-09-17T03:11:38.387Z,46.69
2017-09-17T03:12:38.430Z,46.59
2017-09-17T03:13:38.465Z,46.69
2017-09-17T03:14:38.507Z,46.59
2017-09-17T03:15:38.553Z,46.59
2017-09-17T03:16:38.587Z,46.69
2017-09-17T03:17:38.632Z,46.69
2017-09-17T03:18:38.665Z,46.59
2017-09-17T03:19:38.704Z,46.69
2017-09-17T03:20:38.748Z,46.69
2017-09-17T03:21:38.781Z,46.59
2017-09-17T03:22:38.823Z,46.69
2017-09-17T03:23:38.862Z,46.69
2017-09-17T03:24:38.902Z,46.69
2017-09-17T03:25:38.940Z,46.69
2017-09-17T03:26:38.983Z,46.69
2017-09-17T03:27:39.023Z,46.69
2017-09-17T03:28:39.060Z,46.69
2017-09-17T03:29:39.101Z,46.59
2017-09-17T03:30:39.141Z,46.81
2017-09-17T03:31:39.179Z,46.69
2017-09-17T03:32:39.220Z,46.69
2017-09-17T03:33:39.257Z,46.69
2017-09-17T03:34:39.298Z,46.69
2017-09-17T03:35:39.337Z,46.79
2017-09-17T03:36:39.382Z,46.59
2017-09-17T03:37:39.415Z,46.59
2017-09-17T03:38:39.457Z,46.59
2017-09-17T03:39:39.496Z,46.69
2017-09-17T03:40:39.538Z,46.59
2017-09-17T03:41:39.574Z,46.59
2017-09-17T03:42:39.615Z,46.50
2017-09-17T03:43:39.656Z,46.59
2017-09-17T03:44:39.697Z,46.59
2017-09-17T03:45:39.735Z,46.59
2017-09-17T03:46:39.773Z,46.69
2017-09-17T03:47:39.813Z,46.69
2017-09-17T03:48:39.853Z,46.59
2017-09-17T03:49:39.891Z,46.50
2017-09-17T03:50:39.933Z,46.59
2017-09-17T03:51:39.973Z,46.41
2017-09-17T03:52:40.010Z,46.50
2017-09-17T03:53:40.050Z,46.50
2017-09-17T03:54:40.090Z,46.50
2017-09-17T03:55:40.131Z,46.12
2017-09-17T03:56:40.169Z,46.50
2017-09-17T03:57:40.211Z,46.50
2017-09-17T03:58:40.248Z,46.79
2017-09-17T03:59:40.288Z,46.79
2017-09-17T04:00:40.329Z,46.59
2017-09-17T04:01:40.371Z,46.69
2017-09-17T04:02:40.408Z,46.69
2017-09-17T04:03:40.446Z,46.50
2017-09-17T04:04:40.485Z,46.41
2017-09-17T04:05:40.524Z,46.41
2017-09-17T04:06:40.565Z,46.41
2017-09-17T04:07:40.603Z,46.41
2017-09-17T04:08:40.644Z,46.50
2017-09-17T04:09:40.682Z,46.59
2017-09-17T04:10:40.722Z,46.50
2017-09-17T04:11:40.763Z,46.69
2017-09-17T04:12:40.803Z,46.50
2017-09-17T04:13:40.843Z,46.50
2017-09-17T04:14:40.888Z,46.41
2017-09-17T04:15:40.922Z,46.50
2017-09-17T04:16:40.961Z,46.31
2017-09-17T04:17:40.999Z,46.50
2017-09-17T04:18:41.039Z,46.41
2017-09-17T04:19:41.078Z,46.41
2017-09-17T04:20:41.120Z,46.59
2017-09-17T04:21:41.158Z,46.50
2017-09-17T04:22:41.205Z,46.50
2017-09-17T04:23:41.236Z,46.41
2017-09-17T04:24:41.277Z,46.31
2017-09-17T04:25:41.320Z,46.41
2017-09-17T04:26:41.356Z,46.59
2017-09-17T04:27:41.394Z,46.41
2017-09-17T04:28:41.436Z,46.41
2017-09-17T04:29:41.474Z,46.41
2017-09-17T04:30:41.514Z,46.41
2017-09-17T04:31:41.556Z,46.41
2017-09-17T04:32:41.603Z,46.50
2017-09-17T04:33:41.632Z,46.50
2017-09-17T04:34:41.674Z,46.41
2017-09-17T04:35:41.711Z,46.50
2017-09-17T04:36:41.752Z,46.59
2017-09-17T04:37:41.791Z,46.50
2017-09-17T04:38:41.830Z,46.53
2017-09-17T04:39:41.871Z,46.41
2017-09-17T04:40:41.910Z,46.41
2017-09-17T04:41:41.949Z,46.31
2017-09-17T04:42:41.990Z,46.41
2017-09-17T04:43:42.029Z,46.41
2017-09-17T04:44:42.068Z,46.53
2017-09-17T04:45:42.110Z,46.50
2017-09-17T04:46:42.146Z,46.43
2017-09-17T04:47:42.187Z,46.50
2017-09-17T04:48:42.231Z,46.50
2017-09-17T04:49:42.264Z,46.59
2017-09-17T04:50:42.306Z,46.50
2017-09-17T04:51:42.345Z,46.33
2017-09-17T04:52:42.389Z,46.69
2017-09-17T04:53:42.424Z,46.59
2017-09-17T04:54:42.465Z,46.50
2017-09-17T04:55:42.503Z,46.59
2017-09-17T04:56:42.545Z,46.31
2017-09-17T04:57:42.582Z,46.31
2017-09-17T04:58:42.621Z,46.43
2017-09-17T04:59:42.662Z,46.53
2017-09-17T05:00:42.701Z,46.62
2017-09-17T05:01:42.741Z,46.33
2017-09-17T05:02:42.781Z,46.23
2017-09-17T05:03:42.820Z,46.31
2017-09-17T05:04:42.862Z,46.31
2017-09-17T05:05:42.898Z,46.33
2017-09-17T05:06:42.942Z,46.33
2017-09-17T05:07:42.978Z,46.50
2017-09-17T05:08:43.020Z,45.95
2017-09-17T05:09:43.058Z,45.92
2017-09-17T05:10:43.098Z,46.04
2017-09-17T05:11:43.136Z,46.14
2017-09-17T05:12:43.177Z,46.02
2017-09-17T05:13:43.216Z,46.12
2017-09-17T05:14:43.256Z,45.92
2017-09-17T05:15:43.295Z,45.83
2017-09-17T05:16:43.334Z,46.14
2017-09-17T05:17:43.372Z,46.33
2017-09-17T05:18:43.413Z,46.04
2017-09-17T05:19:43.453Z,46.21
2017-09-17T05:20:43.495Z,46.02
2017-09-17T05:21:43.541Z,46.12
2017-09-17T05:22:43.570Z,46.23
2017-09-17T05:23:43.611Z,46.02
2017-09-17T05:24:43.650Z,46.04
2017-09-17T05:25:43.689Z,45.66
2017-09-17T05:26:43.730Z,45.85
2017-09-17T05:27:43.769Z,45.66
2017-09-17T05:28:43.809Z,45.85
2017-09-17T05:29:43.850Z,46.02
2017-09-17T05:30:43.890Z,45.64
2017-09-17T05:31:43.928Z,45.66
2017-09-17T05:32:43.967Z,45.85
2017-09-17T05:33:44.006Z,46.14
2017-09-17T05:34:44.046Z,45.54
2017-09-17T05:35:44.085Z,45.66
2017-09-17T05:36:44.138Z,45.73
2017-09-17T05:37:44.166Z,45.85
2017-09-17T05:38:44.203Z,45.76
2017-09-17T05:39:44.243Z,45.66
2017-09-17T05:40:44.284Z,45.66
2017-09-17T05:41:44.323Z,45.73
2017-09-17T05:42:44.362Z,45.83
2017-09-17T05:43:44.406Z,45.95
2017-09-17T05:44:44.442Z,45.73
2017-09-17T05:45:44.482Z,46.02
2017-09-17T05:46:44.522Z,45.85
2017-09-17T05:47:44.561Z,45.95
2017-09-17T05:48:44.600Z,45.95
2017-09-17T05:49:44.639Z,45.85
2017-09-17T05:50:44.684Z,45.56
2017-09-17T05:51:44.719Z,46.04
2017-09-17T05:52:44.759Z,45.76
2017-09-17T05:53:44.798Z,45.56
2017-09-17T05:54:44.841Z,45.66
2017-09-17T05:55:44.876Z,45.73
2017-09-17T05:56:44.917Z,45.28
2017-09-17T05:57:44.956Z,45.37
2017-09-17T05:58:44.995Z,45.15
2017-09-17T05:59:45.036Z,45.37
2017-09-17T06:00:45.078Z,44.99
2017-09-17T06:01:45.116Z,45.18
2017-09-17T06:02:45.154Z,45.18
2017-09-17T06:03:45.196Z,45.18
2017-09-17T06:04:45.240Z,45.35
2017-09-17T06:05:45.273Z,45.18
2017-09-17T06:06:45.312Z,44.99
2017-09-17T06:07:45.354Z,45.25
2017-09-17T06:08:45.393Z,45.18
2017-09-17T06:09:45.431Z,45.06
2017-09-17T06:10:45.473Z,44.89
2017-09-17T06:11:45.513Z,45.37
2017-09-17T06:12:45.551Z,45.06
2017-09-17T06:13:45.597Z,44.96
2017-09-17T06:14:45.630Z,44.89
2017-09-17T06:15:45.669Z,45.45
2017-09-17T06:16:45.712Z,45.47
2017-09-17T06:17:45.749Z,45.37
2017-09-17T06:18:45.800Z,45.66
2017-09-17T06:19:45.827Z,45.56
2017-09-17T06:20:45.868Z,45.18
2017-09-17T06:21:45.907Z,45.25
2017-09-17T06:22:45.948Z,44.89
2017-09-17T06:23:45.986Z,44.89
2017-09-17T06:24:46.026Z,45.15
2017-09-17T06:25:46.064Z,44.99
2017-09-17T06:26:46.104Z,45.08
2017-09-17T06:27:46.146Z,45.08
2017-09-17T06:28:46.186Z,44.77
2017-09-17T06:29:46.224Z,44.99
2017-09-17T06:30:46.262Z,44.99
2017-09-17T06:31:46.303Z,44.96
2017-09-17T06:32:46.345Z,44.87
2017-09-17T06:33:46.382Z,44.99
2017-09-17T06:34:46.423Z,44.99
2017-09-17T06:35:46.462Z,44.60
2017-09-17T06:36:46.503Z,44.70
2017-09-17T06:37:46.545Z,44.79
2017-09-17T06:38:46.585Z,44.79
2017-09-17T06:39:46.620Z,44.70
2017-09-17T06:40:46.658Z,44.79
2017-09-17T06:41:46.700Z,44.60
2017-09-17T06:42:46.738Z,44.70
2017-09-17T06:43:46.778Z,44.60
2017-09-17T06:44:46.820Z,44.60
2017-09-17T06:45:46.860Z,44.60
2017-09-17T06:46:46.901Z,44.60
2017-09-17T06:47:46.942Z,44.70
2017-09-17T06:48:46.977Z,44.70
2017-09-17T06:49:47.016Z,44.51
2017-09-17T06:50:47.056Z,44.51
2017-09-17T06:51:47.096Z,44.41
2017-09-17T06:52:47.136Z,44.51
2017-09-17T06:53:47.177Z,44.60
2017-09-17T06:54:47.214Z,44.41
2017-09-17T06:55:47.256Z,44.31
2017-09-17T06:56:47.295Z,44.22
2017-09-17T06:57:47.334Z,44.22
2017-09-17T06:58:47.373Z,44.22
2017-09-17T06:59:47.413Z,44.41
2017-09-17T07:00:47.451Z,44.12
2017-09-17T07:01:47.497Z,44.12
2017-09-17T07:02:47.533Z,44.22
2017-09-17T07:03:47.573Z,44.12
2017-09-17T07:04:47.614Z,44.31
2017-09-17T07:05:47.650Z,44.02
2017-09-17T07:06:47.691Z,44.31
2017-09-17T07:07:47.731Z,44.12
2017-09-17T07:08:47.773Z,44.12
2017-09-17T07:09:47.815Z,44.02
2017-09-17T07:10:47.849Z,44.02
2017-09-17T07:11:47.893Z,44.12
2017-09-17T07:12:47.930Z,43.93
2017-09-17T07:13:47.969Z,43.93
2017-09-17T07:14:48.010Z,44.02
2017-09-17T07:15:48.053Z,44.22
2017-09-17T07:16:48.088Z,44.22
2017-09-17T07:17:48.128Z,44.12
2017-09-17T07:18:48.167Z,44.02
2017-09-17T07:19:48.207Z,44.22
2017-09-17T07:20:48.248Z,44.02
2017-09-17T07:21:48.287Z,43.93
2017-09-17T07:22:48.330Z,43.74
2017-09-17T07:23:48.367Z,43.26
2017-09-17T07:24:48.409Z,43.74
2017-09-17T07:25:48.451Z,43.45
2017-09-17T07:26:48.488Z,43.64
2017-09-17T07:27:48.526Z,43.45
2017-09-17T07:28:48.566Z,43.28
2017-09-17T07:29:48.606Z,43.08
2017-09-17T07:30:48.647Z,43.08
2017-09-17T07:31:48.687Z,42.60
2017-09-17T07:32:48.725Z,42.80
2017-09-17T07:33:48.825Z,42.80
2017-09-17T07:34:48.807Z,42.70
2017-09-17T07:35:48.847Z,42.60
2017-09-17T07:36:48.885Z,42.99
2017-09-17T07:37:48.923Z,42.99
2017-09-17T07:38:48.967Z,43.18
2017-09-17T07:39:49.006Z,42.60
2017-09-17T07:40:49.059Z,42.70
2017-09-17T07:41:49.093Z,42.60
2017-09-17T07:42:49.125Z,42.41
2017-09-17T07:43:49.165Z,42.70
2017-09-17T07:44:49.205Z,42.22
2017-09-17T07:45:49.248Z,42.60
2017-09-17T07:46:49.287Z,41.76
2017-09-17T07:47:49.326Z,41.08
2017-09-17T07:48:49.369Z,41.08
2017-09-17T07:49:49.405Z,40.72
2017-09-17T07:50:49.445Z,40.36
2017-09-17T07:51:49.491Z,39.29
2017-09-17T07:52:49.529Z,38.46
2017-09-17T07:53:49.567Z,36.57
2017-09-17T07:54:49.606Z,35.14
2017-09-17T07:55:49.646Z,34.20
2017-09-17T07:56:49.689Z,33.52
2017-09-17T07:57:49.729Z,33.05
2017-09-17T07:58:49.769Z,32.68
2017-09-17T07:59:49.813Z,32.49
2017-09-17T08:00:49.852Z,32.56
2017-09-17T08:01:49.892Z,34.06
2017-09-17T08:02:49.943Z,35.96
2017-09-17T08:03:49.978Z,37.58
2017-09-17T08:04:50.014Z,38.24
2017-09-17T08:05:50.056Z,39.01
2017-09-17T08:06:50.098Z,39.76
2017-09-17T08:07:50.142Z,39.95
2017-09-17T08:08:50.179Z,40.34
2017-09-17T08:09:50.224Z,40.24
2017-09-17T08:10:50.264Z,40.14
2017-09-17T08:11:50.305Z,40.14
2017-09-17T08:12:50.343Z,40.14
2017-09-17T08:13:50.387Z,39.95
2017-09-17T08:14:50.427Z,39.39
2017-09-17T08:15:50.467Z,38.08
2017-09-17T08:16:50.511Z,36.36
2017-09-17T08:17:50.553Z,35.14
2017-09-17T08:18:50.593Z,34.00
2017-09-17T08:19:50.634Z,32.76
2017-09-17T08:20:50.678Z,32.49
2017-09-17T08:21:50.719Z,32.67
2017-09-17T08:22:50.766Z,33.23
2017-09-17T08:23:50.804Z,34.38
2017-09-17T08:24:50.848Z,35.11
2017-09-17T08:25:50.887Z,36.25
2017-09-17T08:26:50.931Z,37.01
2017-09-17T08:27:50.977Z,37.68
2017-09-17T08:28:51.017Z,38.24
2017-09-17T08:29:51.080Z,38.43
2017-09-17T08:30:51.101Z,38.62
2017-09-17T08:31:51.143Z,39.20
2017-09-17T08:32:51.189Z,39.49
2017-09-17T08:33:51.228Z,39.47
2017-09-17T08:34:51.271Z,39.59
2017-09-17T08:35:51.314Z,39.01
2017-09-17T08:36:51.356Z,37.68
2017-09-17T08:37:51.397Z,36.57
2017-09-17T08:38:51.443Z,35.05
2017-09-17T08:39:51.484Z,34.02
2017-09-17T08:40:51.532Z,32.78
2017-09-17T08:41:51.568Z,32.20
2017-09-17T08:42:51.612Z,31.83
2017-09-17T08:43:51.654Z,31.25
2017-09-17T08:44:51.701Z,31.25
2017-09-17T08:45:51.740Z,31.81
2017-09-17T08:46:51.784Z,32.75
2017-09-17T08:47:51.825Z,34.55
2017-09-17T08:48:51.869Z,35.98
2017-09-17T08:49:51.913Z,36.54
2017-09-17T08:50:51.954Z,37.77
2017-09-17T08:51:51.995Z,38.35
2017-09-17T08:52:52.038Z,38.35
2017-09-17T08:53:52.083Z,38.81
2017-09-17T08:54:52.124Z,38.72
2017-09-17T08:55:52.165Z,39.20
2017-09-17T08:56:52.206Z,39.29
2017-09-17T08:57:52.246Z,39.29
2017-09-17T08:58:52.290Z,39.11
2017-09-17T08:59:52.331Z,39.39
2017-09-17T09:00:52.373Z,39.68
2017-09-17T09:01:52.413Z,39.78
2017-09-17T09:02:52.459Z,39.78
2017-09-17T09:03:52.500Z,39.78
2017-09-17T09:04:52.539Z,39.68
2017-09-17T09:05:52.580Z,39.59
2017-09-17T09:06:52.620Z,39.56
2017-09-17T09:07:52.664Z,39.76
2017-09-17T09:08:52.704Z,39.66
2017-09-17T09:09:52.744Z,39.95
2017-09-17T09:10:52.788Z,40.05
2017-09-17T09:11:52.827Z,40.14
2017-09-17T09:12:52.868Z,40.34
2017-09-17T09:13:52.915Z,40.24
2017-09-17T09:14:52.951Z,40.14
2017-09-17T09:15:52.996Z,40.24
2017-09-17T09:16:53.035Z,40.14
2017-09-17T09:17:53.073Z,40.24
2017-09-17T09:18:53.121Z,40.24
2017-09-17T09:19:53.158Z,40.14
2017-09-17T09:20:53.199Z,40.14
2017-09-17T09:21:53.239Z,40.24
2017-09-17T09:22:53.279Z,40.24
2017-09-17T09:23:53.321Z,40.14
2017-09-17T09:24:53.363Z,40.24
2017-09-17T09:25:53.403Z,40.14
2017-09-17T09:26:53.444Z,40.14
2017-09-17T09:27:53.485Z,39.95
2017-09-17T09:28:53.528Z,40.24
2017-09-17T09:29:53.566Z,40.05
2017-09-17T09:30:53.609Z,39.87
2017-09-17T09:31:53.649Z,40.05
2017-09-17T09:32:53.700Z,40.05
2017-09-17T09:33:53.734Z,40.05
2017-09-17T09:34:53.773Z,40.05
2017-09-17T09:35:53.812Z,40.05
2017-09-17T09:36:53.856Z,40.24
2017-09-17T09:37:53.894Z,40.14
2017-09-17T09:38:53.939Z,40.24
2017-09-17T09:39:53.983Z,40.24
2017-09-17T09:40:54.022Z,40.24
2017-09-17T09:41:54.060Z,40.14
2017-09-17T09:42:54.100Z,40.05
2017-09-17T09:43:54.141Z,40.05
2017-09-17T09:44:54.182Z,40.24
2017-09-17T09:45:54.223Z,40.24
2017-09-17T09:46:54.263Z,40.14
2017-09-17T09:47:54.304Z,40.24
2017-09-17T09:48:54.347Z,40.34
2017-09-17T09:49:54.386Z,40.34
2017-09-17T09:50:54.429Z,40.34
2017-09-17T09:51:54.470Z,40.24
2017-09-17T09:52:54.512Z,40.24
2017-09-17T09:53:54.553Z,40.14
2017-09-17T09:54:54.591Z,40.43
2017-09-17T09:55:54.633Z,40.34
2017-09-17T09:56:54.676Z,40.53
2017-09-17T09:57:54.718Z,40.53
2017-09-17T09:58:54.756Z,40.63
2017-09-17T09:59:54.797Z,40.63
2017-09-17T10:00:54.837Z,40.53
2017-09-17T10:01:54.878Z,40.34
2017-09-17T10:02:54.925Z,40.34
2017-09-17T10:03:54.963Z,40.34
2017-09-17T10:04:55.002Z,40.43
2017-09-17T10:05:55.043Z,40.34
2017-09-17T10:06:55.082Z,40.81
2017-09-17T10:07:55.124Z,40.43
2017-09-17T10:08:55.164Z,40.34
2017-09-17T10:09:55.207Z,40.43
2017-09-17T10:10:55.246Z,40.91
2017-09-17T10:11:55.286Z,40.91
2017-09-17T10:12:55.329Z,40.81
2017-09-17T10:13:55.369Z,40.72
2017-09-17T10:14:55.409Z,40.63
2017-09-17T10:15:55.452Z,40.63
2017-09-17T10:16:55.498Z,40.63
2017-09-17T10:17:55.531Z,40.63
2017-09-17T10:18:55.573Z,40.53
2017-09-17T10:19:55.613Z,40.53
2017-09-17T10:20:55.657Z,40.63
2017-09-17T10:21:55.695Z,40.63
2017-09-17T10:22:55.736Z,40.53
2017-09-17T10:23:55.776Z,40.63
2017-09-17T10:24:55.818Z,40.63
2017-09-17T10:25:55.859Z,40.51
2017-09-17T10:26:55.901Z,40.53
2017-09-17T10:27:55.941Z,40.51
2017-09-17T10:28:55.985Z,40.63
2017-09-17T10:29:56.022Z,40.72
2017-09-17T10:30:56.068Z,40.72
2017-09-17T10:31:56.107Z,40.53
2017-09-17T10:32:56.158Z,40.63
2017-09-17T10:33:56.190Z,40.81
2017-09-17T10:34:56.229Z,40.70
2017-09-17T10:35:56.266Z,40.61
2017-09-17T10:36:56.309Z,40.80
2017-09-17T10:37:56.351Z,40.70
2017-09-17T10:38:56.393Z,40.80
2017-09-17T10:39:56.432Z,40.89
2017-09-17T10:40:56.472Z,40.80
2017-09-17T10:41:56.512Z,41.08
2017-09-17T10:42:56.555Z,41.01
2017-09-17T10:43:56.593Z,41.11
2017-09-17T10:44:56.634Z,40.81
2017-09-17T10:45:56.683Z,41.11
2017-09-17T10:46:56.717Z,40.89
2017-09-17T10:47:56.757Z,41.01
2017-09-17T10:48:56.798Z,41.11
2017-09-17T10:49:56.915Z,41.01
2017-09-17T10:50:56.881Z,40.80
2017-09-17T10:51:56.921Z,41.11
2017-09-17T10:52:56.962Z,41.01
2017-09-17T10:53:57.003Z,41.01
2017-09-17T10:54:57.042Z,41.11
2017-09-17T10:55:57.083Z,40.72
2017-09-17T10:56:57.126Z,40.53
2017-09-17T10:57:57.166Z,40.81
2017-09-17T10:58:57.225Z,41.18
2017-09-17T10:59:57.246Z,41.66
2017-09-17T11:00:57.289Z,41.56
2017-09-17T11:01:57.329Z,41.38
2017-09-17T11:02:57.370Z,41.47
2017-09-17T11:03:57.411Z,41.28
2017-09-17T11:04:57.452Z,41.47
2017-09-17T11:05:57.492Z,41.56
2017-09-17T11:06:57.537Z,41.68
2017-09-17T11:07:57.575Z,41.08
2017-09-17T11:08:57.615Z,40.91
2017-09-17T11:09:57.658Z,41.08
2017-09-17T11:10:57.696Z,41.11
2017-09-17T11:11:57.737Z,41.01
2017-09-17T11:12:57.782Z,40.99
2017-09-17T11:13:57.818Z,40.99
2017-09-17T11:14:57.861Z,41.08
2017-09-17T11:15:57.902Z,41.68
2017-09-17T11:16:57.941Z,41.38
2017-09-17T11:17:57.984Z,40.99
2017-09-17T11:18:58.025Z,41.18
2017-09-17T11:19:58.064Z,41.08
2017-09-17T11:20:58.105Z,41.28
2017-09-17T11:21:58.147Z,41.66
2017-09-17T11:22:58.185Z,41.66
2017-09-17T11:23:58.228Z,41.56
2017-09-17T11:24:58.269Z,41.86
2017-09-17T11:25:58.308Z,41.76
2017-09-17T11:26:58.351Z,41.56
2017-09-17T11:27:58.391Z,41.56
2017-09-17T11:28:58.465Z,41.56
2017-09-17T11:29:58.474Z,41.56
2017-09-17T11:30:58.513Z,41.56
2017-09-17T11:31:58.553Z,41.47
2017-09-17T11:32:58.596Z,41.56
2017-09-17T11:33:58.634Z,41.56
2017-09-17T11:34:58.675Z,41.47
2017-09-17T11:35:58.718Z,41.66
2017-09-17T11:36:58.756Z,41.66
2017-09-17T11:37:58.796Z,41.76
2017-09-17T11:38:58.839Z,41.86
2017-09-17T11:39:58.879Z,41.56
2017-09-17T11:40:58.919Z,41.56
2017-09-17T11:41:58.960Z,41.56
2017-09-17T11:42:59.001Z,41.66
2017-09-17T11:43:59.040Z,41.76
2017-09-17T11:44:59.081Z,41.56
2017-09-17T11:45:59.122Z,41.56
2017-09-17T11:46:59.163Z,41.56
2017-09-17T11:47:59.204Z,41.56
2017-09-17T11:48:59.246Z,41.66
2017-09-17T11:49:59.284Z,41.66
2017-09-17T11:50:59.325Z,41.56
2017-09-17T11:51:59.367Z,41.56
2017-09-17T11:52:59.407Z,41.59
2017-09-17T11:53:59.449Z,41.66
2017-09-17T11:54:59.493Z,41.76
2017-09-17T11:55:59.530Z,41.56
2017-09-17T11:56:59.572Z,41.76
2017-09-17T11:57:59.610Z,41.76
2017-09-17T11:58:59.652Z,41.76
2017-09-17T11:59:59.694Z,41.95
2017-09-17T12:00:59.734Z,41.95
2017-09-17T12:01:59.774Z,42.72
2017-09-17T12:02:59.842Z,42.53
2017-09-17T12:03:59.858Z,42.24
2017-09-17T12:04:59.896Z,42.14
2017-09-17T12:05:59.937Z,42.43
2017-09-17T12:06:59.977Z,42.43
2017-09-17T12:08:00.019Z,42.33
2017-09-17T12:09:00.060Z,42.33
2017-09-17T12:10:00.099Z,42.43
2017-09-17T12:11:00.140Z,42.43
2017-09-17T12:12:00.182Z,42.43
2017-09-17T12:13:00.223Z,43.01
2017-09-17T12:14:00.262Z,42.14
2017-09-17T12:15:00.302Z,42.24
2017-09-17T12:16:00.344Z,42.24
2017-09-17T12:17:00.385Z,42.33
2017-09-17T12:18:00.424Z,42.24
2017-09-17T12:19:00.467Z,42.14
2017-09-17T12:20:00.507Z,42.43
2017-09-17T12:21:00.546Z,42.24
2017-09-17T12:22:00.588Z,42.33
2017-09-17T12:23:00.630Z,42.24
2017-09-17T12:24:00.668Z,42.43
2017-09-17T12:25:00.709Z,42.82
2017-09-17T12:26:00.750Z,42.63
2017-09-17T12:27:00.790Z,42.82
2017-09-17T12:28:00.830Z,42.53
2017-09-17T12:29:00.872Z,42.82
2017-09-17T12:30:00.918Z,42.63
2017-09-17T12:31:00.952Z,42.82
2017-09-17T12:32:00.993Z,42.63
2017-09-17T12:33:01.034Z,42.33
2017-09-17T12:34:01.075Z,42.33
2017-09-17T12:35:01.115Z,42.63
2017-09-17T12:36:01.156Z,42.33
2017-09-17T12:37:01.196Z,42.63
2017-09-17T12:38:01.237Z,42.43
2017-09-17T12:39:01.277Z,42.72
2017-09-17T12:40:01.318Z,42.53
2017-09-17T12:41:01.360Z,42.43
2017-09-17T12:42:01.398Z,42.72
2017-09-17T12:43:01.441Z,42.63
2017-09-17T12:44:01.484Z,42.72
2017-09-17T12:45:01.526Z,42.53
2017-09-17T12:46:01.560Z,42.33
2017-09-17T12:47:01.602Z,42.72
2017-09-17T12:48:01.643Z,42.72
2017-09-17T12:49:01.686Z,43.11
2017-09-17T12:50:01.723Z,42.91
2017-09-17T12:51:01.766Z,42.99
2017-09-17T12:52:01.805Z,42.91
2017-09-17T12:53:01.846Z,43.01